• Join FlightAware (Why Join?)
  • Login
  • US Flag 
04:26AM EST


 

Airport Tracker/Info


-or-


 

Live Flight TrackerFlight Track Log ✈ N724AE ✈ 19-Apr-2013 ✈ KDFW - KAEX

Flight Track Log - Related Links

Times and Time Zones

All times are in EDT time to prevent confusion due to time zone crossing. See the N724AE flight status page for this flight to view local times or setup timezone preferences in your user account.

Time Position Orientation Groundspeed Altitude Reporting Facility
EDT Latitude Longitude Course Direction KTS MPH feet Rate Location/Type
02:55PM 32.9500 -97.0333 84° East 193 222 3,800  Level Dallas / Fort Worth TRACON
02:56PM 32.6840 -96.9365 103° East  Level FlightAware Approximate
02:57PM 32.6833 -96.7862 90° East  Level FlightAware Approximate
02:57PM 33.0203 -96.9403 48° Northeast 217 250 9,200  Level Fort Worth Center
02:58PM 32.7104 -96.6393 77° East  Level FlightAware Approximate
02:58PM 32.9908 -96.8439 110° East 278 320 10,000  Level Fort Worth Center
02:59PM 32.7354 -96.4919 84° East  Level FlightAware Approximate
02:59PM 32.9317 -96.7228 120° Southeast 333 383 10,800  Level Fort Worth Center
03:00PM 32.7479 -96.3421 84° East  Level FlightAware Approximate
03:00PM 32.8872 -96.6169 117° Southeast 386 444 12,600  Level Fort Worth Center
03:01PM 32.8300 -96.4889 118° Southeast 397 457 15,000 2,100 Climbing Fort Worth Center
03:02PM 32.7833 -96.3856 118° Southeast 397 457 16,800 1,680 Climbing Fort Worth Center
03:03PM 32.7444 -96.2428 108° East 391 450 18,400 1,560 Climbing Fort Worth Center
03:04PM 32.7267 -96.1219 100° East 414 476 20,000 1,680 Climbing Fort Worth Center
03:05PM 32.7039 -95.9667 100° East 428 493 21,800 2,100 Climbing Fort Worth Center
03:06PM 32.6814 -95.8214 100° East 433 498 24,300 1,860 Climbing Fort Worth Center
03:07PM 32.6589 -95.6911 102° East 433 498 25,600 1,380 Climbing Fort Worth Center
03:08PM 32.6650 -95.5453 87° East 444 511 27,100 1,440 Climbing Fort Worth Center
03:09PM 32.6772 -95.3919 85° East 455 524 28,500 900 Climbing Fort Worth Center
03:10PM 32.6806 -95.2094 89° East 468 539 29,000 240 Climbing Fort Worth Center
03:11PM 32.6942 -95.0386 85° East 502 578 29,000  Level Fort Worth Center
03:12PM 32.7072 -94.8606 85° East 523 602 29,000  Level Fort Worth Center
03:13PM 32.6767 -94.6911 102° East 530 610 29,000  Level Fort Worth Center
03:14PM 32.6208 -94.5300 112° Southeast 520 598 29,000  Level Fort Worth Center
03:15PM 32.5692 -94.3714 111° Southeast 520 598 29,000  Level Fort Worth Center
03:16PM 32.5131 -94.2108 112° Southeast 520 598 29,000  Level Fort Worth Center
03:17PM 32.4564 -94.0478 112° Southeast 520 598 29,000 -600 Level Fort Worth Center
03:18PM 32.4042 -93.8922 112° Southeast 527 606 27,900 -1,500 Descending Fort Worth Center
03:19PM 32.3494 -93.7297 112° Southeast 527 606 26,000 -1,980 Descending Fort Worth Center
03:20PM 32.2908 -93.5797 115° Southeast 521 600 24,000 -2,280 Descending Fort Worth Center
03:22PM 32.1000 -93.3819 139° Southeast 448 516 19,200 -2,280 Descending Houston Center
03:23PM 32.0097 -93.2836 137° Southeast 445 512 17,100 -2,160 Descending Houston Center
03:24PM 31.9222 -93.1894 138° Southeast 437 503 14,800 -1,920 Descending Houston Center
03:25PM 31.8381 -93.0981 137° Southeast 425 489 13,200 -1,500 Descending Houston Center
03:26PM 31.7542 -93.0106 138° Southeast 414 476 11,800 -1,560 Descending Houston Center
03:26PM 31.7094 -92.9600 136° Southeast 390 449 10,900 -1,200 Descending Houston Center
03:27PM 31.6797 -92.9269 137° Southeast 388 447 10,600 -1,080 Descending Houston Center
03:28PM 31.6331 -92.8783 138° Southeast 318 366 9,700 -1,560 Descending Houston Center
03:28PM 31.6000 -92.8406 136° Southeast 336 387 9,000 -1,440 Descending Houston Center
03:29PM 31.5700 -92.8081 137° Southeast 317 365 8,300 -1,500 Descending Houston Center
03:29PM 31.5372 -92.7736 138° Southeast 318 366 7,500 -1,620 Descending Houston Center
03:30PM 31.5050 -92.7406 139° Southeast 301 346 6,700 -1,440 Descending Houston Center
03:30PM 31.4725 -92.7175 149° Southeast 300 345 6,000 -1,500 Descending Houston Center
03:31PM 31.4325 -92.6906 150° Southeast 286 329 5,200 -1,380 Descending Houston Center
03:31PM 31.4044 -92.6681 146° Southeast 292 336 4,600 -1,140 Descending Houston Center
03:32PM 31.3706 -92.6400 145° Southeast 277 319 4,100 -1,200 Descending Houston Center
03:32PM 31.3472 -92.6189 142° Southeast 273 314 3,400 -1,200 Descending Houston Center